Morris, IL

1:08 PM CDT on March 26, 2017 (GMT -0500)
Morris | | Change Station

Elev 584 ft 41.43 °N, 88.42 °W | Updated 13 minutes ago

Overcast
Overcast
58 °F
Feels Like 58 °F
N
15
Wind Variable Wind from SSW

Today
High -- | Low -- °F
--% Chance of Precip.
Yesterday
High -- | Low -- °F
Precip. -- in
Pressure 29.82 in
Visibility 10.0 miles
Clouds Mostly Cloudy 1800 ft
Overcast 2700 ft
Dew Point 52 °F
Humidity 80%
Rainfall 0.05 in
Snow Depth Not available.
6:46 AM 7:12 PM
Waning Crescent, 2% visible
METAR KC09 261755Z AUTO 21013KT 10SM BKN018 OVC027 15/11 A2982 RMK AO2 60001 T01450110 10159 20130
Pressure 29.82 in
Visibility 10.0 miles
Clouds Mostly Cloudy 1800 ft
Overcast 2700 ft
Dew Point 52 °F
Humidity 80%
Rainfall 0.05 in
Snow Depth Not available.
6:46 AM 7:12 PM
Waning Crescent, 2% visible
METAR KC09 261755Z AUTO 21013KT 10SM BKN018 OVC027 15/11 A2982 RMK AO2 60001 T01450110 10159 20130

Get Severe Weather Alerts

Thanks for signing up!

Be on the lookout for a verification email in your inbox.

You'll start receiving the daily forecast at 8 AM.

×

10-Day Weather Forecast

Almanac

Astronomy

Mar. 26, 2017 Rise Set
Actual Time
Civil Twilight
Nautical Twilight
Astronomical Twilight
Moon
Length of Visible Light
Length of Day
Tomorrow will be .
, % of the Moon is Illuminated

Today's Extremes

State Highs State Lows

Community

WunderPhotos

Upload Photos

1,962,540 photos uploaded!

WunderBlog® & News

Nearby

Air Quality

  Air Quality AQ Index Pollutant
Not available.

Snow Depth

Station Depth Elevation

Earthquake Activity

City Distance Mag. Time & Date
Minimum magnitude displayed is 2.5.

Earthquake Activity

City Distance Mag. Time & Date
Minimum magnitude displayed is 2.5.

Coastal Water Temperatures

Place Temperature

Stations

Nearby Weather Stations

Station Location Temp. Windchill Dew Point Humidity Wind Precip. Elev Updated Type
                   

Watches & Warnings

There are currently no watches in effect.